Time;durP1;ratioP1;P1;durP2;ratioP2;P2;SDS_P1;SDS_P2;PMS_P1;PMS_P2;Temp;Humidity;BMP_temperature;BMP_pressure;BME280_temperature;BME280_humidity;BME280_pressure;Samples;Min_cycle;Max_cycle;Signal;HPM_P1;HPM_P2
2022/05/07 00:00:38;;;;;;;0.52;0.10;;;;;;;11.51;100.00;101703.53;5147978;27;20514;-49
2022/05/07 00:03:04;;;;;;;0.45;0.20;;;;;;;11.52;100.00;101706.03;5146804;27;20022;-50
2022/05/07 00:05:29;;;;;;;2.05;0.35;;;;;;;11.52;100.00;101699.91;5148631;27;20191;-45
2022/05/07 00:07:54;;;;;;;0.20;0.20;;;;;;;11.54;100.00;101697.94;5144688;27;20026;-46
2022/05/07 00:10:20;;;;;;;1.75;0.40;;;;;;;11.55;100.00;101704.88;5145161;27;20034;-47
2022/05/07 00:12:45;;;;;;;1.90;0.50;;;;;;;11.57;100.00;101698.41;5145766;27;20121;-49
2022/05/07 00:15:10;;;;;;;1.00;0.30;;;;;;;11.56;100.00;101706.53;5148171;27;20046;-48
2022/05/07 00:20:20;;;;;;;0.38;0.20;;;;;;;11.60;100.00;101699.06;5147969;27;20037;-46
2022/05/07 00:22:45;;;;;;;0.50;0.47;;;;;;;11.60;100.00;101697.25;5147039;27;20030;-51
2022/05/07 00:25:10;;;;;;;0.95;0.40;;;;;;;11.61;100.00;101696.22;5149001;27;20041;-48
2022/05/07 00:27:37;;;;;;;1.25;0.20;;;;;;;11.62;100.00;101694.44;5127399;27;20023;-46
2022/05/07 00:30:06;;;;;;;0.95;0.55;;;;;;;11.63;100.00;101690.75;5145506;27;20023;-48
2022/05/07 00:32:32;;;;;;;1.25;0.52;;;;;;;11.63;100.00;101693.41;5147504;27;20027;-46
2022/05/07 00:34:57;;;;;;;2.35;0.47;;;;;;;11.61;100.00;101692.75;5147573;27;20026;-48
2022/05/07 00:37:23;;;;;;;0.77;0.77;;;;;;;11.61;100.00;101687.44;5147747;27;20475;-46
2022/05/07 00:39:49;;;;;;;0.32;0.22;;;;;;;11.61;100.00;101692.75;5147567;27;20023;-46
2022/05/07 00:42:15;;;;;;;0.60;0.30;;;;;;;11.60;100.00;101683.13;5116130;27;20121;-46
2022/05/07 00:44:41;;;;;;;2.00;0.75;;;;;;;11.61;100.00;101698.06;5147749;27;20026;-46
2022/05/07 00:47:16;;;;;;;1.98;0.95;;;;;;;11.60;100.00;101685.78;5145295;27;20429;-47
2022/05/07 00:49:46;;;;;;;1.08;0.57;;;;;;;11.59;100.00;101679.66;5127598;27;20387;-47
2022/05/07 00:52:12;;;;;;;0.90;0.45;;;;;;;11.60;100.00;101680.47;5147285;27;20037;-46
2022/05/07 00:54:40;;;;;;;3.17;0.90;;;;;;;11.59;100.00;101679.66;5147297;27;20459;-48
2022/05/07 00:57:07;;;;;;;2.20;0.90;;;;;;;11.58;100.00;101678.81;5125970;27;20023;-50
2022/05/07 00:59:33;;;;;;;0.88;0.30;;;;;;;11.62;100.00;101670.53;5146487;27;20035;-47
2022/05/07 01:01:58;;;;;;;1.00;0.68;;;;;;;11.61;100.00;101680.28;5147434;27;20425;-46
2022/05/07 01:04:24;;;;;;;1.83;0.60;;;;;;;11.60;100.00;101683.13;5140962;27;20079;-53
2022/05/07 01:06:50;;;;;;;1.65;0.60;;;;;;;11.61;100.00;101680.28;5145328;27;20034;-46
2022/05/07 01:09:16;;;;;;;0.65;0.25;;;;;;;11.61;100.00;101671.50;5140566;27;20039;-48
2022/05/07 01:11:42;;;;;;;0.38;0.38;;;;;;;11.62;100.00;101678.50;5152452;27;20525;-46
2022/05/07 01:14:08;;;;;;;1.23;0.57;;;;;;;11.61;100.00;101677.63;5153256;27;20022;-46
2022/05/07 01:16:33;;;;;;;0.45;0.38;;;;;;;11.64;100.00;101676.47;5148771;27;20034;-48
2022/05/07 01:18:58;;;;;;;4.03;0.88;;;;;;;11.64;100.00;101676.47;5149377;27;20027;-48
2022/05/07 01:21:24;;;;;;;0.73;0.73;;;;;;;11.64;100.00;101677.31;5151639;27;20031;-47
2022/05/07 01:23:49;;;;;;;0.45;0.45;;;;;;;11.64;100.00;101677.31;5142009;27;20035;-49
2022/05/07 01:26:20;;;;;;;1.20;0.50;;;;;;;11.65;100.00;101678.16;5133850;27;20046;-48
2022/05/07 01:28:46;;;;;;;1.08;0.95;;;;;;;11.65;100.00;101683.47;5149953;27;20546;-49
2022/05/07 01:31:11;;;;;;;0.45;0.45;;;;;;;11.63;100.00;101680.13;5148384;27;20071;-49
2022/05/07 01:33:38;;;;;;;1.65;0.43;;;;;;;11.63;100.00;101680.97;5141375;27;20022;-49
2022/05/07 01:36:11;;;;;;;2.47;0.50;;;;;;;11.64;100.00;101679.13;5128272;27;20962;-48
2022/05/07 01:38:37;;;;;;;1.05;0.57;;;;;;;11.62;100.00;101678.50;5143607;27;20102;-50
2022/05/07 01:41:03;;;;;;;0.60;0.40;;;;;;;11.59;100.00;101682.31;5152378;27;20316;-49
2022/05/07 01:43:32;;;;;;;4.22;0.40;;;;;;;11.58;100.00;101678.81;5126622;27;20038;-51
2022/05/07 01:45:58;;;;;;;3.03;0.57;;;;;;;11.55;100.00;101681.81;5151791;27;20019;-47
2022/05/07 01:48:23;;;;;;;0.68;0.68;;;;;;;11.54;100.00;101680.16;5147563;27;20079;-50
2022/05/07 01:50:49;;;;;;;4.30;0.60;;;;;;;11.54;100.00;101677.50;5152978;27;20041;-50
2022/05/07 01:53:14;;;;;;;1.60;1.02;;;;;;;11.54;100.00;101677.50;5128892;27;20134;-46
2022/05/07 01:55:40;;;;;;;0.60;0.55;;;;;;;11.55;100.00;101673.84;5152403;27;20026;-48
2022/05/07 01:58:06;;;;;;;0.82;0.82;;;;;;;11.53;100.00;101670.50;5151940;27;20027;-53
2022/05/07 02:00:33;;;;;;;1.17;1.15;;;;;;;11.53;100.00;101670.50;5150240;27;20498;-46
2022/05/07 02:02:59;;;;;;;2.33;1.35;;;;;;;11.51;100.00;101667.22;5148165;27;20428;-46
2022/05/07 02:05:29;;;;;;;2.15;1.10;;;;;;;11.50;100.00;101667.38;5142489;27;20167;-46
2022/05/07 02:07:55;;;;;;;1.08;1.00;;;;;;;11.51;100.00;101666.38;5147182;27;20031;-47
2022/05/07 02:10:21;;;;;;;0.63;0.50;;;;;;;11.48;100.00;101666.69;5150033;27;20049;-46
2022/05/07 02:12:49;;;;;;;2.38;0.95;;;;;;;11.44;100.00;101670.72;5149455;27;20474;-46
2022/05/07 02:15:14;;;;;;;0.80;0.75;;;;;;;11.43;100.00;101680.47;5138630;27;20495;-50
2022/05/07 02:17:40;;;;;;;0.88;0.32;;;;;;;11.44;100.00;101674.19;5149248;27;20037;-48
2022/05/07 02:20:06;;;;;;;4.70;1.67;;;;;;;11.48;100.00;101677.31;5146309;27;20102;-46
2022/05/07 02:22:31;;;;;;;0.68;0.68;;;;;;;11.51;100.00;101680.50;5149417;27;20555;-51
2022/05/07 02:24:58;;;;;;;0.82;0.52;;;;;;;11.54;100.00;101674.03;5139812;27;20056;-46
2022/05/07 02:27:24;;;;;;;1.45;0.70;;;;;;;11.54;100.00;101677.50;5151700;27;20057;-50
2022/05/07 02:29:49;;;;;;;3.30;1.10;;;;;;;11.55;100.00;101670.34;5152061;27;20467;-47
2022/05/07 02:32:15;;;;;;;2.53;1.35;;;;;;;11.52;100.00;101676.84;5150270;27;20472;-50
2022/05/07 02:34:41;;;;;;;1.40;1.30;;;;;;;11.52;100.00;101670.69;5152041;27;20050;-48
2022/05/07 02:37:07;;;;;;;1.50;0.57;;;;;;;11.52;100.00;101684.78;5151747;27;20431;-47
2022/05/07 02:39:33;;;;;;;0.50;0.50;;;;;;;11.52;100.00;101681.31;5146384;27;20032;-48
2022/05/07 02:44:43;;;;;;;2.90;1.60;;;;;;;11.50;100.00;101684.13;5145353;27;20526;-48
2022/05/07 02:47:09;;;;;;;1.98;1.65;;;;;;;11.50;100.00;101681.47;5151156;27;20034;-49
2022/05/07 02:49:34;;;;;;;1.98;0.98;;;;;;;11.50;100.00;101678.81;5144020;27;20284;-49
2022/05/07 02:52:01;;;;;;;1.65;1.35;;;;;;;11.51;100.00;101687.59;5146439;27;20019;-49
2022/05/07 02:54:27;;;;;;;1.23;0.93;;;;;;;11.49;100.00;101679.81;5151564;27;20035;-46
2022/05/07 02:56:52;;;;;;;3.00;1.02;;;;;;;11.48;100.00;101683.47;5141356;27;20035;-49
2022/05/07 02:59:18;;;;;;;3.45;1.60;;;;;;;11.49;100.00;101684.31;5143954;27;20041;-46
2022/05/07 03:01:43;;;;;;;1.45;1.30;;;;;;;11.48;100.00;101687.94;5151497;27;20026;-49
2022/05/07 03:04:09;;;;;;;3.22;1.60;;;;;;;11.51;100.00;101688.47;5151469;27;20094;-46
2022/05/07 03:06:35;;;;;;;3.97;2.17;;;;;;;11.51;100.00;101690.25;5148367;27;20027;-48
2022/05/07 03:09:01;;;;;;;2.10;1.33;;;;;;;11.48;100.00;101691.44;5150594;27;20054;-47
2022/05/07 03:11:26;;;;;;;1.20;1.08;;;;;;;11.47;100.00;101691.63;5149264;27;20464;-47
2022/05/07 03:13:52;;;;;;;3.00;1.85;;;;;;;11.45;100.00;101694.44;5149969;27;20065;-50
2022/05/07 03:16:17;;;;;;;3.28;1.25;;;;;;;11.44;100.00;101687.47;5151488;27;20516;-47
2022/05/07 03:18:42;;;;;;;2.22;1.25;;;;;;;11.44;100.00;101697.28;5151292;27;20034;-47
2022/05/07 03:21:09;;;;;;;2.55;2.45;;;;;;;11.42;100.00;101694.75;5148244;27;20030;-48
2022/05/07 03:23:34;;;;;;;1.85;1.75;;;;;;;11.41;100.00;101695.78;5149565;27;20398;-50
2022/05/07 03:26:00;;;;;;;1.17;1.08;;;;;;;11.42;100.00;101692.09;5140193;27;20035;-47
2022/05/07 03:28:25;;;;;;;1.70;1.58;;;;;;;11.42;100.00;101693.94;5142082;27;20033;-49
2022/05/07 03:30:50;;;;;;;1.90;1.80;;;;;;;11.40;100.00;101696.75;5144689;27;20053;-46
2022/05/07 03:33:16;;;;;;;1.42;1.33;;;;;;;11.40;100.00;101695.94;5147795;27;20058;-50
2022/05/07 03:35:43;;;;;;;1.95;1.30;;;;;;;11.40;100.00;101702.06;5149071;27;20034;-46
2022/05/07 03:38:10;;;;;;;2.30;1.70;;;;;;;11.39;100.00;101695.09;5127856;27;20031;-47
2022/05/07 03:40:35;;;;;;;2.30;1.73;;;;;;;11.37;100.00;101701.56;5145221;27;20038;-46
2022/05/07 03:43:01;;;;;;;1.50;1.23;;;;;;;11.38;100.00;101697.91;5139212;27;20146;-48
2022/05/07 03:45:27;;;;;;;1.75;1.13;;;;;;;11.39;100.00;101702.25;5140158;27;20110;-46
2022/05/07 03:47:53;;;;;;;4.25;2.03;;;;;;;11.40;100.00;101712.69;5138719;27;20115;-49
2022/05/07 03:50:18;;;;;;;2.58;1.58;;;;;;;11.39;100.00;101705.72;5150726;27;20205;-48
2022/05/07 03:55:28;;;;;;;2.30;1.83;;;;;;;11.38;100.00;101714.66;5146258;27;20055;-46
2022/05/07 03:57:54;;;;;;;3.78;1.63;;;;;;;11.37;100.00;101707.72;5146825;27;20035;-48
2022/05/07 04:00:20;;;;;;;2.40;1.52;;;;;;;11.38;100.00;101714.66;5143790;27;20036;-50
2022/05/07 04:02:45;;;;;;;2.60;2.10;;;;;;;11.37;100.00;101717.50;5148604;27;22053;-47
2022/05/07 04:05:11;;;;;;;1.80;1.60;;;;;;;11.35;100.00;101707.03;5151293;27;20075;-47
2022/05/07 04:07:36;;;;;;;2.38;1.83;;;;;;;11.35;100.00;101704.38;5130634;27;20022;-51
2022/05/07 04:10:02;;;;;;;2.45;2.17;;;;;;;11.34;100.00;101710.69;5149973;27;20030;-49
2022/05/07 04:12:28;;;;;;;2.20;1.35;;;;;;;11.31;100.00;101706.56;5149739;27;20406;-48
2022/05/07 04:14:58;;;;;;;2.50;1.63;;;;;;;11.31;100.00;101713.69;5127233;27;20047;-48
2022/05/07 04:17:23;;;;;;;2.03;1.83;;;;;;;11.31;100.00;101716.34;5141523;27;20038;-47
2022/05/07 04:19:49;;;;;;;1.33;1.23;;;;;;;11.29;100.00;101721.00;5143478;27;20491;-48
2022/05/07 04:22:14;;;;;;;3.95;1.20;;;;;;;11.27;100.00;101718.50;5140821;27;20114;-52
2022/05/07 04:24:39;;;;;;;1.13;1.05;;;;;;;11.26;100.00;101716.84;5144629;27;20094;-47
2022/05/07 04:27:05;;;;;;;1.25;1.02;;;;;;;11.24;100.00;101718.81;5143169;27;20057;-47
2022/05/07 04:29:30;;;;;;;3.05;1.75;;;;;;;11.22;100.00;101719.97;5139195;27;20058;-48
2022/05/07 04:31:55;;;;;;;1.65;1.20;;;;;;;11.24;100.00;101723.31;5142624;27;20023;-49
2022/05/07 04:34:22;;;;;;;2.35;1.17;;;;;;;11.21;100.00;101726.31;5134842;27;20515;-50
2022/05/07 04:36:47;;;;;;;1.23;1.10;;;;;;;11.21;100.00;101726.31;5134193;27;20442;-48
2022/05/07 04:39:13;;;;;;;2.40;1.92;;;;;;;11.22;100.00;101728.78;5141526;27;20022;-50
2022/05/07 04:41:38;;;;;;;1.48;1.30;;;;;;;11.23;100.00;101732.25;5144480;27;20033;-49
2022/05/07 04:44:03;;;;;;;1.30;1.20;;;;;;;11.24;100.00;101728.63;5145706;27;20092;-51
2022/05/07 04:46:29;;;;;;;2.40;1.38;;;;;;;11.24;100.00;101725.97;5146535;27;20041;-50
2022/05/07 04:48:54;;;;;;;2.38;1.25;;;;;;;11.25;100.00;101725.78;5141642;27;20087;-47
2022/05/07 04:51:19;;;;;;;1.70;1.60;;;;;;;11.25;100.00;101720.47;5130643;27;20141;-46
2022/05/07 04:53:45;;;;;;;3.45;1.95;;;;;;;11.25;100.00;101733.75;5150055;27;20487;-50
2022/05/07 04:56:10;;;;;;;4.40;1.73;;;;;;;11.27;100.00;101729.09;5143827;27;20468;-47
2022/05/07 04:58:36;;;;;;;1.65;1.45;;;;;;;11.28;100.00;101732.59;5132161;27;20030;-46
2022/05/07 05:01:01;;;;;;;1.33;1.23;;;;;;;11.29;100.00;101736.91;5136890;27;20042;-49
2022/05/07 05:03:27;;;;;;;1.15;1.05;;;;;;;11.29;100.00;101736.91;5149967;27;20027;-50
2022/05/07 05:05:52;;;;;;;6.38;1.83;;;;;;;11.32;100.00;101742.72;5141333;27;20019;-50
2022/05/07 05:08:17;;;;;;;1.65;0.93;;;;;;;11.34;100.00;101737.25;5140298;27;20033;-47
2022/05/07 05:10:43;;;;;;;1.20;1.10;;;;;;;11.35;100.00;101741.56;5138958;27;20037;-46
2022/05/07 05:13:09;;;;;;;0.95;0.95;;;;;;;11.37;100.00;101752.03;5144847;27;20050;-50
2022/05/07 05:15:35;;;;;;;5.10;2.03;;;;;;;11.34;100.00;101751.34;5148491;27;20062;-46
2022/05/07 05:18:00;;;;;;;3.38;2.08;;;;;;;11.37;100.00;101755.50;5129979;27;20015;-50
2022/05/07 05:20:26;;;;;;;1.90;1.17;;;;;;;11.37;100.00;101755.50;5139996;27;20035;-49
2022/05/07 05:22:51;;;;;;;1.48;1.38;;;;;;;11.37;100.00;101760.00;5146581;27;20027;-49
2022/05/07 05:25:19;;;;;;;2.70;1.73;;;;;;;11.37;100.00;101760.81;5143058;27;20069;-48
2022/05/07 05:27:45;;;;;;;2.35;1.42;;;;;;;11.40;100.00;101755.16;5133183;27;20043;-47
2022/05/07 05:30:11;;;;;;;4.32;1.35;;;;;;;11.44;100.00;101761.00;5136344;27;20096;-48
2022/05/07 05:32:36;;;;;;;1.77;1.42;;;;;;;11.42;100.00;101758.50;5144495;27;20110;-48
2022/05/07 05:35:05;;;;;;;1.70;1.55;;;;;;;11.44;100.00;101761.00;5144488;27;20114;-47
2022/05/07 05:37:31;;;;;;;2.33;2.00;;;;;;;11.46;100.00;101761.66;5146474;27;20023;-47
2022/05/07 05:39:56;;;;;;;1.92;1.27;;;;;;;11.49;100.00;101767.47;5137115;27;20467;-51
2022/05/07 05:42:22;;;;;;;1.15;1.05;;;;;;;11.50;100.00;101768.31;5143031;27;20109;-48
2022/05/07 05:44:47;;;;;;;1.55;1.25;;;;;;;11.50;100.00;101776.25;5143624;27;20595;-46
2022/05/07 05:47:13;;;;;;;2.00;1.85;;;;;;;11.51;100.00;101777.91;5147369;27;20047;-51
2022/05/07 05:49:38;;;;;;;1.98;1.83;;;;;;;11.55;100.00;101774.78;5136432;27;20054;-49
2022/05/07 05:52:05;;;;;;;2.33;1.10;;;;;;;11.53;100.00;101776.75;5136444;27;20567;-48
2022/05/07 05:54:30;;;;;;;1.77;1.55;;;;;;;11.52;100.00;101774.28;5120805;27;20441;-52
2022/05/07 05:56:57;;;;;;;4.05;2.38;;;;;;;11.52;100.00;101783.06;5151006;27;21554;-48
2022/05/07 05:59:22;;;;;;;2.58;2.35;;;;;;;11.54;100.00;101785.56;5150414;27;20432;-49
2022/05/07 06:01:48;;;;;;;3.50;1.60;;;;;;;11.57;100.00;101779.94;5147421;27;20113;-48
2022/05/07 06:04:14;;;;;;;1.70;1.60;;;;;;;11.58;100.00;101779.75;5150336;27;20316;-49
2022/05/07 06:06:40;;;;;;;1.58;1.48;;;;;;;11.60;100.00;101787.56;5149493;27;20482;-49
2022/05/07 06:09:06;;;;;;;2.50;2.28;;;;;;;11.64;100.00;101788.03;5147589;27;20029;-49
2022/05/07 06:11:31;;;;;;;2.08;1.67;;;;;;;11.72;100.00;101788.03;5148529;27;20027;-47
2022/05/07 06:13:56;;;;;;;3.13;1.80;;;;;;;11.77;100.00;101791.88;5148046;27;20107;-49
2022/05/07 06:16:22;;;;;;;1.92;1.50;;;;;;;11.81;100.00;101795.03;5149166;27;20050;-49
2022/05/07 06:18:47;;;;;;;2.03;1.35;;;;;;;11.85;100.00;101806.13;5148270;27;20121;-53
2022/05/07 06:21:13;;;;;;;2.40;1.70;;;;;;;11.84;100.00;101800.00;5148415;27;20109;-48
2022/05/07 06:23:38;;;;;;;1.90;1.80;;;;;;;11.81;100.00;101810.16;5146170;27;20019;-49
2022/05/07 06:28:47;;;;;;;3.72;2.03;;;;;;;11.78;100.00;101808.66;5144453;27;20054;-47
2022/05/07 06:31:13;;;;;;;2.15;2.00;;;;;;;11.82;100.00;101806.47;5147606;27;20030;-48
2022/05/07 06:33:38;;;;;;;2.50;1.95;;;;;;;11.81;100.00;101805.66;5149020;27;20436;-47
2022/05/07 06:36:05;;;;;;;2.03;1.90;;;;;;;11.85;100.00;101799.03;5147786;27;20380;-48
2022/05/07 06:38:31;;;;;;;2.65;1.65;;;;;;;11.92;100.00;101804.50;5129482;27;20515;-47
2022/05/07 06:41:01;;;;;;;2.20;2.00;;;;;;;12.03;100.00;101813.97;5150016;27;20455;-46
2022/05/07 06:43:27;;;;;;;1.58;1.27;;;;;;;12.06;100.00;101805.69;5150397;27;20031;-53
2022/05/07 06:45:53;;;;;;;2.17;1.45;;;;;;;12.09;100.00;101813.31;5149664;27;20042;-49
2022/05/07 06:48:18;;;;;;;2.90;1.63;;;;;;;12.09;100.00;101808.81;5148770;27;20121;-49
2022/05/07 06:50:43;;;;;;;1.98;1.88;;;;;;;12.15;100.00;101813.44;5148574;27;20019;-48
2022/05/07 06:53:08;;;;;;;1.27;1.17;;;;;;;12.21;100.00;101809.31;5148460;27;20027;-47
2022/05/07 06:55:54;;;;;;;2.10;1.90;;;;;;;12.34;100.00;101811.41;5147827;27;20022;-47
2022/05/07 06:58:20;;;;;;;2.58;1.42;;;;;;;12.38;100.00;101812.75;5148413;27;20113;-48
2022/05/07 07:00:45;;;;;;;2.80;1.50;;;;;;;12.39;100.00;101814.41;5114853;27;20041;-47
2022/05/07 07:03:10;;;;;;;1.38;1.27;;;;;;;12.42;100.00;101812.25;5146810;27;20026;-50
2022/05/07 07:05:36;;;;;;;1.80;1.55;;;;;;;12.36;100.00;101812.91;5146565;27;20054;-48
2022/05/07 07:08:01;;;;;;;1.45;1.35;;;;;;;12.35;100.00;101807.78;5147219;27;20368;-48
2022/05/07 07:10:26;;;;;;;1.58;1.48;;;;;;;12.32;100.00;101808.13;5141851;27;20046;-47
2022/05/07 07:12:52;;;;;;;1.90;1.80;;;;;;;12.30;100.00;101818.09;5146825;27;20482;-49
2022/05/07 07:15:17;;;;;;;4.90;1.10;;;;;;;12.28;100.00;101812.94;5141019;27;20046;-47
2022/05/07 07:17:44;;;;;;;1.65;1.48;;;;;;;12.28;100.00;101818.25;5143801;27;20500;-48
2022/05/07 07:20:09;;;;;;;1.95;1.70;;;;;;;12.27;100.00;101821.09;5136485;27;20034;-51
2022/05/07 07:22:36;;;;;;;1.33;1.00;;;;;;;12.27;100.00;101827.25;5140088;27;20506;-49
2022/05/07 07:25:01;;;;;;;0.68;0.68;;;;;;;12.39;100.00;101823.22;5113081;27;20026;-50
2022/05/07 07:27:26;;;;;;;0.88;0.88;;;;;;;12.52;100.00;101832.47;5140616;27;20451;-52
2022/05/07 07:29:52;;;;;;;0.73;0.65;;;;;;;12.67;100.00;101830.78;5141828;27;20657;-51
2022/05/07 07:32:18;;;;;;;0.73;0.73;;;;;;;12.86;100.00;101830.38;5119467;27;20092;-49
2022/05/07 07:34:43;;;;;;;0.88;0.88;;;;;;;13.07;100.00;101823.63;5122126;27;20031;-50
2022/05/07 07:37:09;;;;;;;0.50;0.50;;;;;;;13.21;100.00;101832.69;5142740;27;20155;-49
2022/05/07 07:39:34;;;;;;;0.70;0.70;;;;;;;13.25;100.00;101829.50;5144414;27;20030;-51
2022/05/07 07:41:59;;;;;;;0.70;0.70;;;;;;;13.25;100.00;101832.16;5127933;27;20033;-52
2022/05/07 07:44:26;;;;;;;0.40;0.40;;;;;;;13.14;100.00;101832.59;5147050;27;20094;-52
2022/05/07 07:49:36;;;;;;;3.60;1.60;;;;;;;12.78;100.00;101838.41;5147914;27;20451;-48
2022/05/07 07:52:01;;;;;;;0.95;0.95;;;;;;;12.53;100.00;101840.31;5145636;27;20106;-49
2022/05/07 07:54:27;;;;;;;1.63;1.52;;;;;;;12.38;100.00;101856.13;5147393;27;20494;-52
2022/05/07 07:56:52;;;;;;;4.53;2.08;;;;;;;12.35;100.00;101858.31;5126935;27;20118;-50
2022/05/07 07:59:17;;;;;;;2.65;2.45;;;;;;;12.29;100.00;101854.50;5145289;27;20026;-48
2022/05/07 08:01:43;;;;;;;2.40;2.20;;;;;;;12.28;100.00;101858.13;5144684;27;20379;-48
2022/05/07 08:04:09;;;;;;;3.33;3.03;;;;;;;12.30;100.00;101866.78;5144987;27;20031;-50
2022/05/07 08:06:35;;;;;;;2.40;2.20;;;;;;;12.31;100.00;101860.44;5143488;27;20083;-52
2022/05/07 08:11:47;;;;;;;4.15;3.78;;;;;;;12.52;100.00;101857.28;5142859;27;20048;-48
2022/05/07 08:14:13;;;;;;;3.83;3.53;;;;;;;12.60;100.00;101853.78;5142178;27;20031;-51
2022/05/07 08:16:39;;;;;;;3.40;3.03;;;;;;;12.78;100.00;101857.03;5143371;27;20451;-54
2022/05/07 08:19:06;;;;;;;3.40;3.10;;;;;;;13.01;100.00;101861.56;5144683;27;20506;-50
2022/05/07 08:21:31;;;;;;;4.28;3.42;;;;;;;13.22;100.00;101850.34;5143174;27;20018;-48
2022/05/07 08:23:57;;;;;;;5.15;3.35;;;;;;;13.36;100.00;101856.78;5142560;27;20042;-50
2022/05/07 08:26:22;;;;;;;3.75;3.28;;;;;;;13.37;100.00;101850.44;5145061;27;20030;-49
2022/05/07 08:28:50;;;;;;;4.53;3.67;;;;;;;13.29;100.00;101856.63;5147842;27;20174;-49
2022/05/07 08:31:16;;;;;;;3.97;3.53;;;;;;;13.16;100.00;101849.19;5145888;27;20159;-52
2022/05/07 08:33:41;;;;;;;4.28;3.88;;;;;;;13.04;100.00;101855.94;5146959;27;20135;-52
2022/05/07 08:36:08;;;;;;;3.80;3.47;;;;;;;12.99;100.00;101861.78;5146825;27;20121;-48
2022/05/07 08:38:34;;;;;;;5.10;4.60;;;;;;;13.15;100.00;101860.03;5140487;27;20444;-51
2022/05/07 08:41:00;;;;;;;6.82;6.05;;;;;;;13.30;100.00;101855.66;5146396;27;20045;-52
2022/05/07 08:43:26;;;;;;;4.20;3.67;;;;;;;13.35;100.00;101852.47;5145480;27;20039;-51
2022/05/07 08:45:52;;;;;;;5.85;5.25;;;;;;;13.63;100.00;101850.09;5145838;27;20038;-52
2022/05/07 08:48:18;;;;;;;6.82;6.13;;;;;;;13.90;100.00;101843.41;5146798;27;20403;-52
2022/05/07 08:50:45;;;;;;;5.57;4.60;;;;;;;14.12;100.00;101845.22;5145489;27;20060;-50
2022/05/07 08:53:10;;;;;;;4.93;4.45;;;;;;;14.17;100.00;101840.16;5130177;27;20026;-48
2022/05/07 08:55:36;;;;;;;5.32;4.18;;;;;;;14.24;100.00;101844.75;5130517;27;20022;-50
2022/05/07 08:58:02;;;;;;;4.70;3.85;;;;;;;14.38;100.00;101847.44;5148733;27;20107;-47
2022/05/07 09:00:28;;;;;;;5.78;3.38;;;;;;;14.29;100.00;101834.38;5144132;27;20031;-51
2022/05/07 09:02:57;;;;;;;3.83;3.53;;;;;;;14.11;100.00;101830.19;5129191;27;20415;-49
2022/05/07 09:05:34;;;;;;;7.28;4.75;;;;;;;14.25;100.00;101838.41;5142421;27;20038;-48
2022/05/07 09:08:00;;;;;;;4.57;4.18;;;;;;;14.24;100.00;101837.56;5144780;27;20023;-50
2022/05/07 09:10:26;;;;;;;4.93;4.50;;;;;;;14.00;100.00;101838.66;5131001;27;20029;-54
2022/05/07 09:12:53;;;;;;;4.40;4.00;;;;;;;13.97;100.00;101841.69;5105946;27;20031;-53
2022/05/07 09:15:18;;;;;;;9.07;5.78;;;;;;;13.96;100.00;101845.34;5121340;27;20031;-47
2022/05/07 09:17:47;;;;;;;9.27;6.65;;;;;;;13.79;100.00;101850.00;5128853;27;20574;-49
2022/05/07 09:20:15;;;;;;;6.55;5.32;;;;;;;13.64;100.00;101851.78;5135941;27;20094;-54
2022/05/07 09:22:55;;;;;;;5.95;5.45;;;;;;;13.72;100.00;101849.88;5141917;27;20026;-48
2022/05/07 09:25:30;;;;;;;7.03;5.00;;;;;;;14.33;100.00;101847.16;5140797;27;20431;-55
2022/05/07 09:27:58;;;;;;;8.65;5.40;;;;;;;14.60;100.00;101828.88;5145576;27;20455;-52
2022/05/07 09:30:26;;;;;;;7.80;6.93;;;;;;;14.86;100.00;101841.75;5138861;27;20023;-55
2022/05/07 09:32:54;;;;;;;8.73;5.53;;;;;;;15.38;100.00;101846.03;5144004;27;20094;-49
2022/05/07 09:38:05;;;;;;;6.10;5.55;;;;;;;15.75;100.00;101835.31;5147255;27;20095;-55
2022/05/07 09:40:36;;;;;;;6.22;5.07;;;;;;;15.68;100.00;101819.22;5143514;27;20025;-50
2022/05/07 09:43:03;;;;;;;5.10;4.22;;;;;;;15.23;100.00;101829.22;5143239;27;20034;-50
2022/05/07 09:45:28;;;;;;;4.97;4.53;;;;;;;15.08;100.00;101831.97;5145980;27;20041;-55
2022/05/07 09:47:55;;;;;;;4.97;4.45;;;;;;;15.38;100.00;101843.38;5143499;27;20027;-55
2022/05/07 09:50:43;;;;;;;5.18;4.03;;;;;;;15.67;100.00;101839.78;5135795;27;20534;-53
2022/05/07 09:58:43;;;;;;;3.38;3.08;;;;;;;16.91;100.00;101824.97;5148260;27;20042;-47
2022/05/07 10:01:20;;;;;;;3.88;3.20;;;;;;;16.87;100.00;101821.06;5144626;27;20049;-52
2022/05/07 10:04:06;;;;;;;2.70;2.50;;;;;;;16.58;100.00;101825.66;5143436;27;20038;-48
2022/05/07 10:06:45;;;;;;;2.92;2.72;;;;;;;16.55;100.00;101824.19;5135586;27;20664;-51
2022/05/07 10:09:16;;;;;;;2.80;2.50;;;;;;;16.77;100.00;101824.06;5146332;27;20417;-53
2022/05/07 10:11:44;;;;;;;2.40;2.20;;;;;;;17.12;100.00;101811.47;5137757;27;20041;-56
2022/05/07 10:14:10;;;;;;;3.75;2.42;;;;;;;17.70;100.00;101807.44;5127259;27;20033;-53
2022/05/07 10:16:35;;;;;;;1.70;1.60;;;;;;;17.60;100.00;101803.28;5143194;27;20034;-56
2022/05/07 10:19:18;;;;;;;1.88;1.77;;;;;;;17.78;100.00;101802.66;5137708;27;20531;-56
2022/05/07 10:21:53;;;;;;;1.30;1.20;;;;;;;16.98;100.00;101815.13;5144510;27;20030;-50
2022/05/07 10:24:19;;;;;;;2.40;2.13;;;;;;;16.11;100.00;101819.19;5144692;27;20117;-52
2022/05/07 10:26:44;;;;;;;4.03;1.85;;;;;;;15.28;100.00;101826.81;5144551;27;20117;-49
2022/05/07 10:29:26;;;;;;;2.08;1.85;;;;;;;14.92;100.00;101846.38;5145178;27;20065;-52
2022/05/07 10:32:01;;;;;;;6.10;1.85;;;;;;;14.71;100.00;101843.59;5145598;27;20035;-51
2022/05/07 10:34:27;;;;;;;1.63;1.52;;;;;;;14.75;100.00;101847.56;5146171;27;20038;-53
2022/05/07 10:37:06;;;;;;;1.88;1.40;;;;;;;14.83;100.00;101845.63;5145349;27;20039;-49
2022/05/07 10:39:32;;;;;;;3.20;1.63;;;;;;;14.95;100.00;101850.50;5145347;27;20061;-50
2022/05/07 10:41:59;;;;;;;1.35;1.35;;;;;;;15.00;100.00;101846.25;5142094;27;20041;-52
2022/05/07 10:44:31;;;;;;;2.85;1.83;;;;;;;15.17;100.00;101838.00;5146147;27;20034;-51
2022/05/07 10:47:08;;;;;;;2.22;1.50;;;;;;;15.80;100.00;101843.59;5139018;27;20023;-55
2022/05/07 10:49:33;;;;;;;1.67;1.17;;;;;;;16.43;100.00;101849.03;5141439;27;20038;-50
2022/05/07 10:52:03;;;;;;;2.35;1.60;;;;;;;16.47;100.00;101837.75;5143753;27;20083;-48
2022/05/07 10:54:28;;;;;;;1.80;1.70;;;;;;;16.33;100.00;101842.16;5139240;27;20077;-52
2022/05/07 10:56:56;;;;;;;3.88;1.83;;;;;;;16.29;100.00;101845.44;5141635;27;20026;-51
2022/05/07 10:59:22;;;;;;;1.90;1.60;;;;;;;16.18;100.00;101841.44;5140812;27;20014;-52
2022/05/07 11:01:49;;;;;;;2.50;1.20;;;;;;;16.31;100.00;101840.69;5142904;27;20027;-48
2022/05/07 11:04:18;;;;;;;0.90;0.90;;;;;;;16.40;100.00;101828.84;5146743;27;20252;-50
2022/05/07 11:06:54;;;;;;;4.13;1.70;;;;;;;16.51;100.00;101836.31;5144471;27;20057;-50
2022/05/07 11:09:21;;;;;;;2.13;1.55;;;;;;;16.56;100.00;101825.81;5143354;27;20030;-48
2022/05/07 11:11:55;;;;;;;1.17;1.15;;;;;;;16.63;100.00;101836.59;5144243;27;20423;-51
2022/05/07 11:14:25;;;;;;;1.00;0.90;;;;;;;16.79;100.00;101841.63;5144172;27;20033;-48
2022/05/07 11:16:57;;;;;;;1.17;1.10;;;;;;;16.54;100.00;101837.75;5132653;27;20262;-50
2022/05/07 11:19:34;;;;;;;0.90;0.90;;;;;;;16.29;100.00;101835.56;5132073;27;20467;-51
2022/05/07 11:22:01;;;;;;;1.15;1.05;;;;;;;16.31;100.00;101846.06;5117556;27;20030;-48
2022/05/07 11:24:28;;;;;;;0.82;0.82;;;;;;;16.26;100.00;101841.31;5129437;27;20064;-49
2022/05/07 11:27:02;;;;;;;1.42;0.85;;;;;;;16.12;100.00;101836.88;5143044;27;20031;-55
2022/05/07 11:29:29;;;;;;;2.78;1.27;;;;;;;16.01;100.00;101832.88;5132361;27;20037;-49
2022/05/07 11:31:56;;;;;;;1.25;0.95;;;;;;;16.13;100.00;101835.84;5143982;27;20030;-52
2022/05/07 11:34:35;;;;;;;2.33;0.93;;;;;;;16.32;100.00;101831.66;5122973;27;20034;-53
2022/05/07 11:37:19;;;;;;;4.63;1.17;;;;;;;16.45;100.00;101833.59;5144774;27;20077;-55
2022/05/07 11:39:51;;;;;;;3.40;1.15;;;;;;;16.93;100.00;101830.97;5146772;27;20030;-51